Time;durP1;ratioP1;P1;durP2;ratioP2;P2;SDS_P1;SDS_P2;PMS_P1;PMS_P2;Temp;Humidity;BMP_temperature;BMP_pressure;BME280_temperature;BME280_humidity;BME280_pressure;Samples;Min_cycle;Max_cycle;Signal;HPM_P1;HPM_P2
2021/07/20 00:02:16;;;;;;;13.45;5.65;;;14.50;83.80;;;;;;6189437;23;20028;-75
2021/07/20 00:04:43;;;;;;;11.38;5.63;;;14.50;84.20;;;;;;6217417;23;20039;-75
2021/07/20 00:07:10;;;;;;;13.13;5.95;;;14.50;83.90;;;;;;6221096;23;20017;-77
2021/07/20 00:09:42;;;;;;;15.77;6.72;;;14.50;84.30;;;;;;6194895;23;20083;-75
2021/07/20 00:12:10;;;;;;;9.48;5.32;;;14.40;84.30;;;;;;6217164;23;20063;-77
2021/07/20 00:14:38;;;;;;;14.45;6.38;;;14.40;84.40;;;;;;6217111;23;20212;-76
2021/07/20 00:17:05;;;;;;;11.93;6.03;;;14.40;84.50;;;;;;6194657;23;20217;-76
2021/07/20 00:19:34;;;;;;;11.35;5.70;;;14.40;84.30;;;;;;6218013;23;20051;-77
2021/07/20 00:22:01;;;;;;;12.98;5.78;;;14.40;84.40;;;;;;6220872;23;20023;-77
2021/07/20 00:24:33;;;;;;;15.23;5.68;;;14.30;84.40;;;;;;6220942;23;20024;-77
2021/07/20 00:27:00;;;;;;;12.30;5.53;;;14.30;84.60;;;;;;6168776;23;1200186;-76
2021/07/20 00:29:33;;;;;;;13.45;6.65;;;14.30;84.60;;;;;;6221840;23;20241;-77
2021/07/20 00:32:00;;;;;;;11.88;5.85;;;14.30;84.60;;;;;;6223852;23;20040;-77
2021/07/20 00:34:29;;;;;;;15.10;5.60;;;14.20;84.80;;;;;;6221316;23;20070;-77
2021/07/20 00:36:57;;;;;;;14.35;5.50;;;14.20;85.00;;;;;;6222780;23;20021;-76
2021/07/20 00:39:24;;;;;;;11.45;6.03;;;14.20;84.90;;;;;;6221493;23;20027;-77
2021/07/20 00:41:52;;;;;;;11.93;4.95;;;14.20;84.80;;;;;;6221004;23;20488;-77
2021/07/20 00:44:20;;;;;;;13.40;6.40;;;14.20;84.60;;;;;;6195536;23;20021;-77
2021/07/20 00:46:49;;;;;;;14.65;5.15;;;14.20;84.80;;;;;;6190711;23;20252;-77
2021/07/20 00:49:16;;;;;;;12.18;5.47;;;14.10;85.00;;;;;;6194186;23;20032;-76
2021/07/20 00:51:43;;;;;;;18.02;6.43;;;14.10;85.10;;;;;;6222290;23;20024;-77
2021/07/20 00:54:14;;;;;;;12.00;4.85;;;14.10;84.90;;;;;;6193974;23;20032;-76
2021/07/20 00:56:44;;;;;;;11.13;4.72;;;14.10;84.90;;;;;;6195399;23;20367;-77
2021/07/20 00:59:13;;;;;;;13.00;5.63;;;14.00;85.00;;;;;;6189975;23;20028;-76
2021/07/20 01:01:45;;;;;;;12.00;5.85;;;13.90;85.30;;;;;;6186008;23;20247;-76
2021/07/20 01:04:12;;;;;;;16.88;6.07;;;13.80;85.70;;;;;;6221848;23;20032;-76
2021/07/20 01:06:42;;;;;;;12.93;5.40;;;13.70;85.80;;;;;;6194763;23;20027;-76
2021/07/20 01:09:11;;;;;;;13.40;6.07;;;13.70;85.90;;;;;;6193604;23;20025;-76
2021/07/20 01:11:43;;;;;;;14.45;6.40;;;13.70;85.90;;;;;;6193927;23;20036;-76
2021/07/20 01:14:12;;;;;;;13.02;5.68;;;13.70;86.00;;;;;;6219493;23;20028;-76
2021/07/20 01:16:43;;;;;;;13.95;6.00;;;13.70;86.00;;;;;;6191749;23;20021;-76
2021/07/20 01:19:14;;;;;;;15.20;6.50;;;13.60;86.30;;;;;;6191814;23;20023;-76
2021/07/20 01:21:47;;;;;;;11.85;5.38;;;13.60;86.40;;;;;;6219349;23;20040;-76
2021/07/20 01:24:20;;;;;;;13.57;5.45;;;13.50;86.60;;;;;;6193163;23;20032;-76
2021/07/20 01:26:52;;;;;;;12.27;4.85;;;13.50;86.70;;;;;;6187866;23;20368;-76
2021/07/20 01:29:22;;;;;;;13.02;4.90;;;13.40;86.90;;;;;;6189952;23;20024;-76
2021/07/20 01:31:51;;;;;;;10.77;5.85;;;13.40;87.10;;;;;;6187807;23;20028;-76
2021/07/20 01:34:21;;;;;;;13.35;5.65;;;13.30;87.30;;;;;;6188415;23;20029;-76
2021/07/20 01:36:49;;;;;;;13.10;5.78;;;13.20;87.30;;;;;;6185972;23;20352;-76
2021/07/20 01:39:21;;;;;;;;;;;13.20;87.40;;;;;;6190083;23;20028;-76
2021/07/20 01:41:49;;;;;;;14.82;5.97;;;13.20;87.50;;;;;;6190363;23;19920;-76
2021/07/20 01:44:17;;;;;;;11.73;5.00;;;13.20;87.50;;;;;;6188235;23;20029;-76
2021/07/20 01:46:52;;;;;;;11.73;5.90;;;13.30;87.60;;;;;;6189334;23;20022;-76
2021/07/20 01:49:24;;;;;;;15.20;5.45;;;13.30;87.20;;;;;;6188027;23;20025;-76
2021/07/20 01:51:59;;;;;;;12.43;5.10;;;13.20;87.20;;;;;;6187533;23;20044;-76
2021/07/20 01:54:29;;;;;;;13.30;6.10;;;13.20;87.40;;;;;;6189029;23;20024;-76
2021/07/20 01:56:58;;;;;;;17.38;6.00;;;13.20;87.50;;;;;;6189890;23;20023;-76
2021/07/20 01:59:46;;;;;;;12.27;5.72;;;13.20;87.50;;;;;;6191257;23;20021;-76
2021/07/20 02:02:29;;;;;;;14.00;5.55;;;13.30;87.20;;;;;;6184407;23;20037;-76
2021/07/20 02:10:43;;;;;;;15.45;5.55;;;13.20;87.60;;;;;;6189305;23;20024;-76
2021/07/20 02:13:39;;;;;;;12.45;5.70;;;13.20;87.70;;;;;;6188792;23;20028;-76
2021/07/20 02:16:30;;;;;;;14.15;5.93;;;13.20;87.70;;;;;;6186183;23;20080;-77
2021/07/20 02:19:13;;;;;;;16.95;5.18;;;13.20;87.80;;;;;;6183491;23;20020;-77
2021/07/20 02:22:23;;;;;;;14.23;5.40;;;13.20;87.60;;;;;;6188885;23;20080;-76
2021/07/20 02:24:55;;;;;;;18.15;6.15;;;13.10;87.80;;;;;;6188251;23;20029;-76
2021/07/20 02:27:25;;;;;;;10.65;5.75;;;13.10;87.80;;;;;;6188458;23;20067;-76
2021/07/20 02:30:18;;;;;;;12.24;4.60;;;13.10;87.80;;;;;;2241438;23;10152909;-76
2021/07/20 02:32:47;;;;;;;13.70;5.15;;;13.10;87.90;;;;;;4908009;23;10001169;-76
2021/07/20 02:35:24;;;;;;;15.10;6.07;;;13.10;87.60;;;;;;6189517;23;20438;-76
2021/07/20 02:37:54;;;;;;;13.30;5.80;;;13.00;87.50;;;;;;6189137;23;20052;-76
2021/07/20 02:40:24;;;;;;;11.90;5.63;;;12.90;87.70;;;;;;6187328;23;20044;-76
2021/07/20 02:42:56;;;;;;;11.63;5.38;;;12.90;87.70;;;;;;6189643;23;20087;-76
2021/07/20 02:45:24;;;;;;;10.60;5.20;;;13.00;87.40;;;;;;6190442;23;20189;-76
2021/07/20 02:47:53;;;;;;;11.13;5.13;;;12.90;87.50;;;;;;6187703;23;20028;-76
2021/07/20 02:50:27;;;;;;;10.77;5.78;;;12.90;87.50;;;;;;6189184;23;20041;-76
2021/07/20 02:53:06;;;;;;;15.77;5.47;;;12.90;87.70;;;;;;6187269;23;20029;-76
2021/07/20 02:55:45;;;;;;;14.27;5.70;;;12.70;88.10;;;;;;6189515;23;20028;-76
2021/07/20 02:58:16;;;;;;;13.43;5.75;;;12.70;88.00;;;;;;6189105;23;20210;-76
2021/07/20 03:00:44;;;;;;;13.80;5.75;;;12.70;88.30;;;;;;6183126;23;20036;-76
2021/07/20 03:03:13;;;;;;;12.50;5.43;;;12.60;88.20;;;;;;6186129;23;20029;-76
2021/07/20 03:05:49;;;;;;;10.88;5.13;;;12.70;88.10;;;;;;6185243;23;20029;-76
2021/07/20 03:08:23;;;;;;;11.95;5.43;;;12.70;88.10;;;;;;6185883;23;20345;-76
2021/07/20 03:10:59;;;;;;;11.23;5.65;;;12.70;88.00;;;;;;6183626;23;20092;-76
2021/07/20 03:13:31;;;;;;;11.75;4.90;;;12.60;88.00;;;;;;6184882;23;20043;-76
2021/07/20 03:16:01;;;;;;;12.10;5.68;;;12.60;88.40;;;;;;6183727;23;20029;-76
2021/07/20 03:18:30;;;;;;;15.07;5.68;;;12.60;88.10;;;;;;6184458;23;20251;-76
2021/07/20 03:21:00;;;;;;;13.45;6.18;;;12.60;88.10;;;;;;6186643;23;20303;-76
2021/07/20 03:23:34;;;;;;;11.50;5.28;;;12.60;88.20;;;;;;6185506;23;20064;-76
2021/07/20 03:26:04;;;;;;;11.20;5.25;;;12.60;88.00;;;;;;6188640;23;20021;-76
2021/07/20 03:28:34;;;;;;;12.02;5.80;;;12.60;87.90;;;;;;6187523;23;20300;-76
2021/07/20 03:31:02;;;;;;;;;;;12.60;87.90;;;;;;6187495;23;20088;-76
2021/07/20 03:33:31;;;;;;;12.07;4.55;;;12.60;88.20;;;;;;6213274;23;19920;-75
2021/07/20 03:36:05;;;;;;;11.70;5.30;;;12.60;88.40;;;;;;6187839;23;20053;-76
2021/07/20 03:38:35;;;;;;;12.05;5.43;;;12.70;88.40;;;;;;6187678;23;20319;-76
2021/07/20 03:41:06;;;;;;;12.57;4.97;;;12.70;88.30;;;;;;6188309;23;20029;-77
2021/07/20 03:43:38;;;;;;;11.10;4.75;;;12.70;88.10;;;;;;6188920;23;20044;-76
2021/07/20 03:46:07;;;;;;;11.00;4.95;;;12.80;87.90;;;;;;6188837;23;20029;-77
2021/07/20 03:48:37;;;;;;;13.18;6.28;;;12.80;88.00;;;;;;6189091;23;20044;-76
2021/07/20 03:51:15;;;;;;;13.48;5.72;;;12.70;88.10;;;;;;6189645;23;20068;-76
2021/07/20 03:53:45;;;;;;;12.23;5.45;;;12.80;88.00;;;;;;6191296;23;20034;-76
2021/07/20 03:56:16;;;;;;;12.45;6.00;;;12.90;88.20;;;;;;6189639;23;20029;-76
2021/07/20 03:58:56;;;;;;;15.57;5.78;;;12.90;88.20;;;;;;6192780;23;20013;-76
2021/07/20 04:01:29;;;;;;;11.85;5.25;;;12.80;88.20;;;;;;6189413;23;20213;-76
2021/07/20 04:03:58;;;;;;;12.48;5.75;;;12.80;88.10;;;;;;6190554;23;20017;-76
2021/07/20 04:06:44;;;;;;;12.15;5.35;;;12.80;88.30;;;;;;6192438;23;20040;-76
2021/07/20 04:09:31;;;;;;;14.10;6.40;;;12.90;88.40;;;;;;6190715;23;20025;-76
2021/07/20 04:12:35;;;;;;;13.32;6.18;;;13.00;87.90;;;;;;6128933;23;20326;-76
2021/07/20 04:15:21;;;;;;;14.57;5.72;;;13.00;87.90;;;;;;6182649;23;20029;-76
2021/07/20 04:18:03;;;;;;;13.02;5.75;;;12.90;88.00;;;;;;6187570;23;20264;-76
2021/07/20 04:20:33;;;;;;;14.68;5.55;;;12.90;88.00;;;;;;6191702;23;20036;-76
2021/07/20 04:23:00;;;;;;;12.68;5.78;;;12.90;88.10;;;;;;6191446;23;20302;-76
2021/07/20 04:25:37;;;;;;;11.15;6.18;;;12.80;88.10;;;;;;6189669;23;20202;-76
2021/07/20 04:28:12;;;;;;;12.43;4.93;;;12.90;87.80;;;;;;6189515;23;20032;-76
2021/07/20 04:30:44;;;;;;;17.60;5.88;;;12.90;87.50;;;;;;6188702;23;20028;-76
2021/07/20 04:33:14;;;;;;;12.43;5.97;;;12.70;87.50;;;;;;6190849;23;20076;-76
2021/07/20 04:36:01;;;;;;;10.80;5.35;;;12.80;87.70;;;;;;6189693;23;20021;-76
2021/07/20 04:38:37;;;;;;;12.93;5.35;;;12.80;87.70;;;;;;6191729;23;20025;-76
2021/07/20 04:41:04;;;;;;;10.88;4.68;;;12.90;87.50;;;;;;6191690;23;20031;-76
2021/07/20 04:43:37;;;;;;;13.68;5.30;;;13.00;87.10;;;;;;6190857;23;20249;-77
2021/07/20 04:46:06;;;;;;;15.32;6.00;;;13.00;86.80;;;;;;6190733;23;20261;-76
2021/07/20 04:48:36;;;;;;;14.95;5.45;;;12.90;86.90;;;;;;6187858;23;20029;-76
2021/07/20 04:51:13;;;;;;;14.40;6.53;;;12.90;86.60;;;;;;6190247;23;20101;-76
2021/07/20 04:53:43;;;;;;;10.75;5.15;;;12.90;86.70;;;;;;6189320;23;20028;-77
2021/07/20 04:56:14;;;;;;;14.77;5.40;;;12.90;86.80;;;;;;6188543;23;20088;-77
2021/07/20 04:58:48;;;;;;;13.00;5.63;;;12.90;86.80;;;;;;6188650;23;20209;-76
2021/07/20 05:01:17;;;;;;;13.93;5.75;;;13.10;86.80;;;;;;6185671;23;20294;-77
2021/07/20 05:03:46;;;;;;;;;;;13.10;86.60;;;;;;6189610;23;20036;-76
2021/07/20 05:06:20;;;;;;;12.00;4.90;;;13.10;86.90;;;;;;6187591;23;20119;-76
2021/07/20 05:08:51;;;;;;;18.70;5.93;;;13.20;86.50;;;;;;6188477;23;20024;-76
2021/07/20 05:11:20;;;;;;;13.75;5.20;;;13.20;86.40;;;;;;6189728;23;20051;-76
2021/07/20 05:13:50;;;;;;;12.30;5.97;;;13.20;86.60;;;;;;6187243;23;20021;-76
2021/07/20 05:16:24;;;;;;;12.55;5.78;;;13.10;87.10;;;;;;6187309;23;20025;-76
2021/07/20 05:19:01;;;;;;;12.98;6.13;;;13.20;87.00;;;;;;6190870;23;20339;-77
2021/07/20 05:21:48;;;;;;;10.55;5.18;;;13.20;86.90;;;;;;6189351;23;20202;-76
2021/07/20 05:24:21;;;;;;;13.50;5.75;;;13.20;86.70;;;;;;6190329;23;20281;-76
2021/07/20 05:26:56;;;;;;;18.98;6.43;;;13.30;86.70;;;;;;6187740;23;20116;-76
2021/07/20 05:29:25;;;;;;;16.00;6.03;;;13.40;86.70;;;;;;6189061;23;20018;-77
2021/07/20 05:32:00;;;;;;;16.33;5.82;;;13.40;86.60;;;;;;6187978;23;20021;-76
2021/07/20 05:34:33;;;;;;;13.70;5.63;;;13.50;86.50;;;;;;6188800;23;20103;-76
2021/07/20 05:37:01;;;;;;;17.33;6.88;;;13.60;86.40;;;;;;6192793;23;20293;-75
2021/07/20 05:39:42;;;;;;;14.52;6.32;;;13.70;86.20;;;;;;6190395;23;20221;-75
2021/07/20 05:42:17;;;;;;;13.68;6.45;;;13.70;86.00;;;;;;6190151;23;20186;-76
2021/07/20 05:44:46;;;;;;;14.82;6.50;;;13.70;85.80;;;;;;6190084;23;20025;-75
2021/07/20 05:47:16;;;;;;;14.10;6.10;;;13.80;85.70;;;;;;6191476;23;20032;-76
2021/07/20 05:49:44;;;;;;;11.70;6.40;;;14.00;85.60;;;;;;6191308;23;20037;-75
2021/07/20 05:52:14;;;;;;;14.48;6.10;;;14.10;85.50;;;;;;6188652;23;20044;-75
2021/07/20 05:54:44;;;;;;;;;;;14.20;85.10;;;;;;6190292;23;20032;-76
2021/07/20 05:57:16;;;;;;;15.13;5.88;;;14.40;84.80;;;;;;6214313;23;19920;-76
2021/07/20 06:00:06;;;;;;;14.68;5.93;;;14.50;84.80;;;;;;6188119;23;20083;-75
2021/07/20 06:02:48;;;;;;;16.52;6.65;;;14.60;84.30;;;;;;6193301;23;20025;-75
2021/07/20 06:05:27;;;;;;;14.90;6.38;;;14.80;83.80;;;;;;6187262;23;20044;-75
2021/07/20 06:07:55;;;;;;;10.65;5.53;;;14.90;83.50;;;;;;6189260;23;20052;-75
2021/07/20 06:10:24;;;;;;;15.18;6.20;;;15.00;83.30;;;;;;6191413;23;20017;-75
2021/07/20 06:12:53;;;;;;;11.27;5.53;;;15.20;82.60;;;;;;6190697;23;20308;-75
2021/07/20 06:15:20;;;;;;;16.48;6.68;;;15.20;82.60;;;;;;6189834;23;20084;-76
2021/07/20 06:17:49;;;;;;;17.42;6.45;;;15.20;82.40;;;;;;6186610;23;20396;-77
2021/07/20 06:20:17;;;;;;;14.52;6.60;;;15.30;82.20;;;;;;6189557;23;20024;-78
2021/07/20 06:22:51;;;;;;;13.38;6.53;;;15.40;82.50;;;;;;6190292;23;20032;-77
2021/07/20 06:25:24;;;;;;;13.27;6.03;;;15.50;82.30;;;;;;6191378;23;20261;-77
2021/07/20 06:27:53;;;;;;;16.58;6.40;;;15.60;82.20;;;;;;6189812;23;20055;-76
2021/07/20 06:30:21;;;;;;;14.05;5.97;;;15.70;81.70;;;;;;6189024;23;20032;-78
2021/07/20 06:32:51;;;;;;;13.45;6.63;;;15.80;81.50;;;;;;6189596;23;20024;-78
2021/07/20 06:35:19;;;;;;;;;;;15.80;82.00;;;;;;6191960;23;20033;-78
2021/07/20 06:37:47;;;;;;;15.93;6.38;;;16.10;82.90;;;;;;6188762;23;19931;-77
2021/07/20 06:40:17;;;;;;;13.95;7.05;;;16.20;80.70;;;;;;6189156;23;20356;-77
2021/07/20 06:42:45;;;;;;;15.20;6.07;;;16.30;80.20;;;;;;6189880;23;20029;-77
2021/07/20 06:45:16;;;;;;;15.73;6.35;;;16.40;80.80;;;;;;6189098;23;20032;-77
2021/07/20 06:47:46;;;;;;;12.25;5.68;;;16.50;79.80;;;;;;6188823;23;20025;-77
2021/07/20 06:50:17;;;;;;;13.30;6.25;;;16.60;79.50;;;;;;6189944;23;20324;-77
2021/07/20 06:52:45;;;;;;;12.40;7.28;;;16.60;79.70;;;;;;6188507;23;20079;-76
2021/07/20 06:55:13;;;;;;;14.70;6.72;;;16.70;79.60;;;;;;6187416;23;20028;-77
2021/07/20 06:57:44;;;;;;;14.02;5.85;;;16.80;79.50;;;;;;6188579;23;20017;-76
2021/07/20 07:00:12;;;;;;;14.73;6.18;;;17.00;79.20;;;;;;6183846;23;20013;-76
2021/07/20 07:02:43;;;;;;;19.27;6.85;;;17.20;78.70;;;;;;6188072;23;20219;-75
2021/07/20 07:05:14;;;;;;;11.30;5.53;;;17.30;77.30;;;;;;6187351;23;20025;-77
2021/07/20 07:07:45;;;;;;;13.88;6.22;;;17.40;77.70;;;;;;6187670;23;20027;-72
2021/07/20 07:10:17;;;;;;;14.95;5.68;;;17.60;77.30;;;;;;6188092;23;20545;-72
2021/07/20 07:12:47;;;;;;;12.57;5.97;;;17.70;77.20;;;;;;6188782;23;20071;-72
2021/07/20 07:15:16;;;;;;;14.95;5.68;;;17.80;76.50;;;;;;6188470;23;20036;-72
2021/07/20 07:17:46;;;;;;;12.05;5.93;;;17.80;76.60;;;;;;6188714;23;20388;-71
2021/07/20 07:20:16;;;;;;;12.40;5.63;;;17.80;76.60;;;;;;6185211;23;20043;-71
2021/07/20 07:22:45;;;;;;;17.52;6.50;;;17.80;76.60;;;;;;6188641;23;20036;-71
2021/07/20 07:25:16;;;;;;;11.23;5.73;;;18.10;75.90;;;;;;6187963;23;20240;-71
2021/07/20 07:27:44;;;;;;;11.27;5.53;;;18.20;74.90;;;;;;6206598;23;20028;-71
2021/07/20 07:30:13;;;;;;;17.58;5.05;;;18.30;74.70;;;;;;6219773;23;20197;-71
2021/07/20 07:32:40;;;;;;;15.57;6.10;;;18.40;73.50;;;;;;6219738;23;20028;-75
2021/07/20 07:35:09;;;;;;;12.68;5.60;;;18.40;73.50;;;;;;6220185;23;20025;-76
2021/07/20 07:37:39;;;;;;;13.27;5.85;;;18.50;72.90;;;;;;6220360;23;20355;-77
2021/07/20 07:40:10;;;;;;;13.30;5.17;;;18.60;72.70;;;;;;6221700;23;20021;-76
2021/07/20 07:42:39;;;;;;;17.25;6.05;;;18.50;73.00;;;;;;6221629;23;20232;-76
2021/07/20 07:45:09;;;;;;;12.40;5.82;;;18.70;72.70;;;;;;6194182;23;20029;-76
2021/07/20 07:47:38;;;;;;;11.77;5.30;;;18.80;71.80;;;;;;6220859;23;20017;-76
2021/07/20 07:50:07;;;;;;;17.98;5.43;;;18.90;71.20;;;;;;6195056;23;20016;-77
2021/07/20 07:52:36;;;;;;;10.85;4.80;;;19.00;71.00;;;;;;6220034;23;20028;-77
2021/07/20 07:55:05;;;;;;;12.50;6.28;;;19.10;71.30;;;;;;6194797;23;20035;-77
2021/07/20 07:57:43;;;;;;;14.52;6.13;;;19.30;70.30;;;;;;6221615;23;20016;-77
2021/07/20 08:00:11;;;;;;;12.82;5.60;;;19.40;70.10;;;;;;6214795;23;20033;-77
2021/07/20 08:02:47;;;;;;;13.18;5.72;;;19.60;70.60;;;;;;6212746;23;20300;-77
2021/07/20 08:05:15;;;;;;;12.30;5.45;;;19.70;68.50;;;;;;6189842;23;20033;-76
2021/07/20 08:07:44;;;;;;;11.85;5.43;;;20.00;67.40;;;;;;6193479;23;20220;-77
2021/07/20 08:10:12;;;;;;;10.38;4.55;;;20.10;67.60;;;;;;6219612;23;20026;-76
2021/07/20 08:12:45;;;;;;;18.70;5.45;;;20.40;67.00;;;;;;6194270;23;20078;-76
2021/07/20 08:15:14;;;;;;;12.65;5.18;;;20.60;66.30;;;;;;6221268;23;20017;-74
2021/07/20 08:17:44;;;;;;;9.10;4.65;;;21.00;64.50;;;;;;6221184;23;20255;-76
2021/07/20 08:20:14;;;;;;;10.50;5.43;;;21.40;65.10;;;;;;6220893;23;20020;-76
2021/07/20 08:22:42;;;;;;;10.68;4.90;;;21.70;60.80;;;;;;6222008;23;20024;-76
2021/07/20 08:25:13;;;;;;;10.80;5.15;;;21.90;61.60;;;;;;6220570;23;20017;-77
2021/07/20 08:27:46;;;;;;;11.45;4.65;;;22.10;60.30;;;;;;6185426;23;20413;-76
2021/07/20 08:30:15;;;;;;;10.63;4.63;;;22.30;58.30;;;;;;6188002;23;20016;-76
2021/07/20 08:32:51;;;;;;;10.67;5.17;;;22.50;56.90;;;;;;6187156;23;20116;-76
2021/07/20 08:35:25;;;;;;;10.27;4.47;;;22.60;56.80;;;;;;6188896;23;20284;-76
2021/07/20 08:37:54;;;;;;;10.55;4.60;;;22.50;56.30;;;;;;6187447;23;20204;-76
2021/07/20 08:40:41;;;;;;;13.40;5.22;;;22.90;56.00;;;;;;6191355;23;20013;-76
2021/07/20 08:43:23;;;;;;;10.68;4.30;;;23.30;54.60;;;;;;6186770;23;20029;-76
2021/07/20 08:46:09;;;;;;;13.55;4.78;;;23.50;53.30;;;;;;6189043;23;20024;-76
2021/07/20 08:48:44;;;;;;;12.80;4.72;;;23.80;51.50;;;;;;6187159;23;20332;-75
2021/07/20 08:51:16;;;;;;;9.50;4.45;;;23.60;51.40;;;;;;6187736;23;20025;-77
2021/07/20 08:53:51;;;;;;;14.50;4.43;;;23.80;51.20;;;;;;6188282;23;20035;-77
2021/07/20 08:56:21;;;;;;;12.15;4.65;;;23.70;51.50;;;;;;6190039;23;20025;-76
2021/07/20 08:58:56;;;;;;;9.23;4.30;;;23.60;49.40;;;;;;6190013;23;20028;-78
2021/07/20 09:01:26;;;;;;;9.75;4.15;;;23.30;49.40;;;;;;6186404;23;20024;-78
2021/07/20 09:04:00;;;;;;;10.45;4.30;;;23.20;51.20;;;;;;6191982;23;20025;-78
2021/07/20 09:06:36;;;;;;;9.68;4.38;;;23.10;49.60;;;;;;6193772;23;20025;-79
2021/07/20 09:09:08;;;;;;;12.60;5.20;;;22.90;54.20;;;;;;6189501;23;20264;-77
2021/07/20 09:11:43;;;;;;;8.88;3.85;;;23.00;49.90;;;;;;6188410;23;20025;-77
2021/07/20 09:14:22;;;;;;;8.93;3.65;;;22.90;51.00;;;;;;6190235;23;20021;-77
2021/07/20 09:16:52;;;;;;;10.40;4.72;;;22.60;52.20;;;;;;6190734;23;20075;-76
2021/07/20 09:19:28;;;;;;;10.77;4.57;;;22.50;50.00;;;;;;6192119;23;20017;-77
2021/07/20 09:22:01;;;;;;;9.60;5.00;;;22.30;51.00;;;;;;6187843;23;20032;-76
2021/07/20 09:24:35;;;;;;;11.57;4.20;;;22.20;51.80;;;;;;6190932;23;20241;-76
2021/07/20 09:27:11;;;;;;;9.90;4.35;;;22.10;51.20;;;;;;6198207;23;20035;-76
2021/07/20 09:29:42;;;;;;;10.18;4.80;;;22.00;51.90;;;;;;6220174;23;20186;-77
2021/07/20 09:32:25;;;;;;;9.27;3.97;;;22.10;54.20;;;;;;6219461;23;20043;-76
2021/07/20 09:35:12;;;;;;;11.48;4.28;;;22.30;52.40;;;;;;6219773;23;20025;-76
2021/07/20 09:37:49;;;;;;;12.15;4.10;;;22.40;51.20;;;;;;6193367;23;20070;-75
2021/07/20 09:40:35;;;;;;;7.60;3.70;;;22.60;51.10;;;;;;6192404;23;20035;-76
2021/07/20 09:43:06;;;;;;;8.38;3.90;;;23.10;48.50;;;;;;6221456;23;20031;-75
2021/07/20 09:45:41;;;;;;;16.73;5.20;;;23.10;46.20;;;;;;6220178;23;20028;-76
2021/07/20 09:48:22;;;;;;;9.13;4.18;;;23.50;47.30;;;;;;6219597;23;20188;-75
2021/07/20 09:50:59;;;;;;;9.85;3.60;;;23.80;46.80;;;;;;6218170;23;20024;-75
2021/07/20 09:54:03;;;;;;;8.55;3.92;;;24.40;46.20;;;;;;6193157;23;20024;-75
2021/07/20 09:56:56;;;;;;;9.07;3.50;;;24.50;44.20;;;;;;6200777;23;20032;-75
2021/07/20 09:59:45;;;;;;;8.82;4.00;;;24.40;43.10;;;;;;6219518;23;20074;-76
2021/07/20 10:02:21;;;;;;;7.78;4.03;;;24.50;44.10;;;;;;6215318;23;20028;-75
2021/07/20 10:04:54;;;;;;;10.38;3.38;;;24.80;45.20;;;;;;6220283;23;20512;-75
2021/07/20 10:07:30;;;;;;;7.35;3.70;;;25.00;44.30;;;;;;6221740;23;20271;-76
2021/07/20 10:10:05;;;;;;;9.07;3.55;;;24.90;44.80;;;;;;6220228;23;20274;-76
2021/07/20 10:12:44;;;;;;;10.38;4.18;;;25.10;43.90;;;;;;6220718;23;20072;-75
2021/07/20 10:15:16;;;;;;;7.03;3.53;;;25.20;45.40;;;;;;6220631;23;20039;-76
2021/07/20 10:17:52;;;;;;;10.70;3.85;;;25.20;43.00;;;;;;6191174;23;20028;-75
2021/07/20 10:20:22;;;;;;;8.95;3.75;;;24.90;43.60;;;;;;6220064;23;20071;-76
2021/07/20 10:22:57;;;;;;;8.23;3.75;;;25.00;44.90;;;;;;6218001;23;20024;-76
2021/07/20 10:25:29;;;;;;;10.05;3.75;;;25.80;43.70;;;;;;6191061;23;20406;-76
2021/07/20 10:28:05;;;;;;;9.13;3.58;;;26.80;40.20;;;;;;6218174;23;20024;-76
2021/07/20 10:30:36;;;;;;;10.60;3.70;;;27.80;37.50;;;;;;6219511;23;20035;-76
2021/07/20 10:33:24;;;;;;;8.77;4.13;;;28.50;34.80;;;;;;6218600;23;20058;-76
2021/07/20 10:35:57;;;;;;;7.78;3.08;;;29.10;34.60;;;;;;6217735;23;20359;-76
2021/07/20 10:38:35;;;;;;;9.90;3.35;;;29.70;32.90;;;;;;6218807;23;20020;-76
2021/07/20 10:41:04;;;;;;;7.28;3.38;;;30.40;32.30;;;;;;6188305;23;20352;-74
2021/07/20 10:43:37;;;;;;;11.10;3.55;;;31.40;30.20;;;;;;6218403;23;20460;-74
2021/07/20 10:46:07;;;;;;;5.63;3.03;;;32.20;29.10;;;;;;6190521;23;20028;-75
2021/07/20 10:48:40;;;;;;;7.43;3.65;;;32.50;28.10;;;;;;6191192;23;20024;-75
2021/07/20 10:51:13;;;;;;;8.65;3.80;;;30.40;31.70;;;;;;6186345;23;20067;-75
2021/07/20 10:53:50;;;;;;;9.95;3.45;;;29.00;34.90;;;;;;6213468;23;20415;-75
2021/07/20 10:56:28;;;;;;;8.82;3.63;;;28.10;36.00;;;;;;6213107;23;20021;-75
2021/07/20 10:59:13;;;;;;;8.43;3.78;;;27.60;36.90;;;;;;6187992;23;20020;-75
2021/07/20 11:01:51;;;;;;;7.22;3.10;;;29.10;34.50;;;;;;6214193;23;20020;-75
2021/07/20 11:04:31;;;;;;;11.70;3.77;;;30.00;33.10;;;;;;6218851;23;20016;-76
2021/07/20 11:07:00;;;;;;;7.22;3.10;;;31.10;31.00;;;;;;6189640;23;20048;-76
2021/07/20 11:09:33;;;;;;;8.45;3.67;;;31.80;29.00;;;;;;6215557;23;20035;-76
2021/07/20 11:12:04;;;;;;;7.88;3.40;;;32.70;28.20;;;;;;6217870;23;20071;-77
2021/07/20 11:14:36;;;;;;;8.88;3.50;;;33.90;26.30;;;;;;6214314;23;20300;-76
2021/07/20 11:17:04;;;;;;;8.88;3.47;;;34.00;26.20;;;;;;6216337;23;20023;-77
2021/07/20 11:19:34;;;;;;;8.53;3.83;;;33.10;26.90;;;;;;6219291;23;20070;-76
2021/07/20 11:22:03;;;;;;;7.05;3.17;;;34.50;25.60;;;;;;6217850;23;20028;-77
2021/07/20 11:24:38;;;;;;;5.95;3.13;;;35.60;25.00;;;;;;6215619;23;20067;-77
2021/07/20 11:27:07;;;;;;;6.78;2.97;;;35.20;25.00;;;;;;6218645;23;20074;-76
2021/07/20 11:29:38;;;;;;;9.27;3.17;;;33.60;28.10;;;;;;6190525;23;20028;-76
2021/07/20 11:32:10;;;;;;;9.77;3.42;;;32.30;28.60;;;;;;6218448;23;20020;-76
2021/07/20 11:34:44;;;;;;;5.53;2.95;;;31.00;30.10;;;;;;6218652;23;20047;-76
2021/07/20 11:37:13;;;;;;;7.53;3.63;;;29.70;32.20;;;;;;6216433;23;20025;-76
2021/07/20 11:39:46;;;;;;;5.80;3.33;;;29.00;34.30;;;;;;6190694;23;20020;-76
2021/07/20 11:42:22;;;;;;;6.82;3.50;;;28.90;34.00;;;;;;6218112;23;20020;-76
2021/07/20 11:44:54;;;;;;;9.25;3.33;;;31.50;30.10;;;;;;6220887;23;20063;-76
2021/07/20 11:47:27;;;;;;;8.00;3.45;;;32.90;29.30;;;;;;6222178;23;20025;-76
2021/07/20 11:50:03;;;;;;;7.75;3.47;;;34.80;26.70;;;;;;6195006;23;20059;-76
2021/07/20 11:52:39;;;;;;;7.43;3.70;;;35.70;23.80;;;;;;6218044;23;20062;-76
2021/07/20 11:55:14;;;;;;;7.43;3.45;;;32.80;26.80;;;;;;6218964;23;20233;-76
2021/07/20 11:58:20;;;;;;;7.70;3.42;;;34.00;25.20;;;;;;6192727;23;20029;-76
2021/07/20 12:01:29;;;;;;;8.52;3.72;;;34.00;25.90;;;;;;6216059;23;20028;-76
2021/07/20 12:04:11;;;;;;;5.65;2.92;;;36.40;23.50;;;;;;6214310;23;20032;-77
2021/07/20 12:06:54;;;;;;;7.22;3.10;;;36.90;22.40;;;;;;6218582;23;20331;-77
2021/07/20 12:09:32;;;;;;;6.47;3.38;;;36.70;22.50;;;;;;6217170;23;20094;-77
2021/07/20 12:12:00;;;;;;;7.63;3.47;;;38.40;21.80;;;;;;6218465;23;20095;-76
2021/07/20 12:14:27;;;;;;;;;;;38.40;21.60;;;;;;6218049;23;20443;-76
2021/07/20 12:16:56;;;;;;;5.95;2.72;;;38.20;21.60;;;;;;6193656;23;19946;-76
2021/07/20 12:19:28;;;;;;;6.85;3.13;;;37.00;22.90;;;;;;6190441;23;20407;-76
2021/07/20 12:22:03;;;;;;;7.25;3.28;;;34.10;25.60;;;;;;6219083;23;20036;-76
2021/07/20 12:24:33;;;;;;;7.05;3.38;;;32.90;27.10;;;;;;6194127;23;20075;-76
2021/07/20 12:27:00;;;;;;;7.57;3.20;;;32.30;28.20;;;;;;6218842;23;20024;-77
2021/07/20 12:29:29;;;;;;;6.70;3.20;;;31.60;29.40;;;;;;6218273;23;20244;-76
2021/07/20 12:31:56;;;;;;;;;;;31.40;29.60;;;;;;6219123;23;20027;-76
2021/07/20 12:34:25;;;;;;;6.50;3.47;;;32.40;28.40;;;;;;6217238;23;19926;-76
2021/07/20 12:36:52;;;;;;;5.50;3.00;;;34.80;24.70;;;;;;6219291;23;20044;-76
2021/07/20 12:39:23;;;;;;;7.00;3.60;;;35.00;24.10;;;;;;6216003;23;20025;-77
2021/07/20 12:41:51;;;;;;;5.85;2.88;;;35.60;24.40;;;;;;6191179;23;20344;-76
2021/07/20 12:44:21;;;;;;;6.13;3.35;;;36.00;23.10;;;;;;6194139;23;20028;-76
2021/07/20 12:46:49;;;;;;;6.38;2.92;;;34.50;24.40;;;;;;6190221;23;20029;-76
2021/07/20 12:49:18;;;;;;;7.18;3.08;;;32.30;27.30;;;;;;6191523;23;20020;-77
2021/07/20 12:51:50;;;;;;;8.30;3.50;;;30.80;31.50;;;;;;6220475;23;20028;-77
2021/07/20 12:54:33;;;;;;;6.20;3.30;;;31.10;29.80;;;;;;6220873;23;20025;-76
2021/07/20 12:57:02;;;;;;;8.00;3.35;;;30.60;30.20;;;;;;6193537;23;20021;-77
2021/07/20 12:59:31;;;;;;;5.55;3.10;;;32.40;28.90;;;;;;6220758;23;20024;-77
2021/07/20 13:01:58;;;;;;;5.97;3.03;;;34.30;25.40;;;;;;6187565;23;20025;-77
2021/07/20 13:04:25;;;;;;;5.68;2.95;;;36.60;23.00;;;;;;6219313;23;20016;-76
2021/07/20 13:06:54;;;;;;;7.18;3.00;;;35.90;23.90;;;;;;6219493;23;20020;-77
2021/07/20 13:09:23;;;;;;;5.10;2.60;;;33.70;25.90;;;;;;6194681;23;20075;-77
2021/07/20 13:11:52;;;;;;;7.53;2.95;;;32.10;27.50;;;;;;6218435;23;20209;-77
2021/07/20 13:14:21;;;;;;;7.45;3.30;;;32.40;27.60;;;;;;6191879;23;20029;-77
2021/07/20 13:16:49;;;;;;;7.93;2.97;;;33.30;26.90;;;;;;6217980;23;20072;-76